createdAt,value
2017-11-19T00:01:29.947Z,100940.45
2017-11-19T00:03:57.615Z,100941.28
2017-11-19T00:06:25.224Z,100935.42
2017-11-19T00:08:52.879Z,100932.23
2017-11-19T00:11:20.484Z,100930.62
2017-11-19T00:13:48.135Z,100934.86
2017-11-19T00:16:15.782Z,100925.78
2017-11-19T00:18:43.422Z,100920.39
2017-11-19T00:21:11.074Z,100939.77
2017-11-19T00:23:38.752Z,100930.28
2017-11-19T00:26:06.368Z,100936.94
2017-11-19T00:28:33.996Z,100936.52
2017-11-19T00:31:01.687Z,100937.41
2017-11-19T00:33:29.318Z,100929.06
2017-11-19T00:35:56.919Z,100915.63
2017-11-19T00:38:24.635Z,100915.34
2017-11-19T00:40:52.231Z,100916.97
2017-11-19T00:43:19.893Z,100918.00
2017-11-19T00:45:47.516Z,100919.45
2017-11-19T00:48:15.168Z,100916.67
2017-11-19T00:50:42.780Z,100920.55
2017-11-19T00:53:10.486Z,100917.27
2017-11-19T00:55:38.083Z,100912.00
2017-11-19T00:58:05.726Z,100923.74
2017-11-19T01:00:33.312Z,100927.14
2017-11-19T01:03:00.962Z,100921.49
2017-11-19T01:05:28.572Z,100925.31
2017-11-19T01:07:56.237Z,100914.42
2017-11-19T01:10:23.841Z,100919.22
2017-11-19T01:12:51.531Z,100921.08
2017-11-19T01:15:19.171Z,100924.22
2017-11-19T01:17:46.814Z,100935.59
2017-11-19T01:20:14.446Z,100951.45
2017-11-19T01:22:42.108Z,100941.75
2017-11-19T01:25:09.715Z,100948.28
2017-11-19T01:27:37.359Z,100939.25
2017-11-19T01:30:04.968Z,100935.78
2017-11-19T01:32:32.594Z,100933.39
2017-11-19T01:35:00.292Z,100933.13
2017-11-19T01:37:27.926Z,100942.70
2017-11-19T01:39:55.521Z,100946.75
2017-11-19T01:42:23.151Z,100948.13
2017-11-19T01:44:50.742Z,100947.96
2017-11-19T01:47:18.422Z,100952.19
2017-11-19T01:49:46.030Z,100957.88
2017-11-19T01:52:13.649Z,100960.47
2017-11-19T01:54:41.231Z,100960.23
2017-11-19T01:57:08.885Z,100961.45
2017-11-19T01:59:36.490Z,100962.73
2017-11-19T02:02:04.142Z,100965.05
2017-11-19T02:04:31.743Z,100963.60
2017-11-19T02:06:59.381Z,100959.09
2017-11-19T02:09:26.975Z,100960.43
2017-11-19T02:11:54.617Z,100962.31
2017-11-19T02:14:22.279Z,100958.05
2017-11-19T02:16:49.935Z,100961.16
2017-11-19T02:19:17.567Z,100957.22
2017-11-19T02:21:45.196Z,100957.21
2017-11-19T02:24:12.834Z,100950.17
2017-11-19T02:26:40.482Z,100957.92
2017-11-19T02:29:08.121Z,100958.85
2017-11-19T02:31:35.750Z,100960.88
2017-11-19T02:34:03.365Z,100967.12
2017-11-19T02:36:31.007Z,100963.95
2017-11-19T02:38:58.626Z,100969.42
2017-11-19T02:41:26.260Z,100969.27
2017-11-19T02:43:53.883Z,100964.68
2017-11-19T02:46:21.505Z,100974.34
2017-11-19T02:48:49.158Z,100979.13
2017-11-19T02:51:16.772Z,100974.39
2017-11-19T02:53:44.404Z,100974.62
2017-11-19T02:56:12.106Z,100971.91
2017-11-19T02:58:39.726Z,100976.94
2017-11-19T03:01:07.350Z,100977.35
2017-11-19T03:03:35.003Z,100975.72
2017-11-19T03:06:02.599Z,100975.06
2017-11-19T03:08:30.240Z,100974.21
2017-11-19T03:10:57.846Z,100971.30
2017-11-19T03:13:25.527Z,100974.80
2017-11-19T03:15:53.202Z,100983.00
2017-11-19T03:18:20.819Z,100972.11
2017-11-19T03:20:48.408Z,100974.17
2017-11-19T03:23:16.055Z,100972.51
2017-11-19T03:25:43.638Z,100982.44
2017-11-19T03:28:11.322Z,100982.17
2017-11-19T03:30:38.944Z,100991.92
2017-11-19T03:33:06.559Z,100992.39
2017-11-19T03:35:34.175Z,100981.50
2017-11-19T03:38:01.806Z,100967.33
2017-11-19T03:40:29.466Z,100967.45
2017-11-19T03:42:57.120Z,100961.88
2017-11-19T03:45:24.738Z,100972.14
2017-11-19T03:47:52.353Z,100963.98
2017-11-19T03:50:19.995Z,100970.67
2017-11-19T03:52:47.626Z,100973.61
2017-11-19T03:55:15.234Z,100970.09
2017-11-19T03:57:42.868Z,100972.06
2017-11-19T04:00:10.443Z,100974.62
2017-11-19T04:02:38.079Z,100975.72
2017-11-19T04:05:05.699Z,100970.13
2017-11-19T04:07:33.331Z,100975.77
2017-11-19T04:10:00.938Z,100983.96
2017-11-19T04:12:28.650Z,100980.92
2017-11-19T04:14:56.251Z,100981.61
2017-11-19T04:17:23.892Z,100990.06
2017-11-19T04:19:51.485Z,100979.82
2017-11-19T04:22:19.230Z,100982.86
2017-11-19T04:24:46.820Z,100988.41
2017-11-19T04:27:14.443Z,100987.41
2017-11-19T04:29:42.087Z,100994.70
2017-11-19T04:32:09.761Z,100993.45
2017-11-19T04:34:37.366Z,101005.83
2017-11-19T04:37:05.099Z,101003.67
2017-11-19T04:39:32.691Z,100994.48
2017-11-19T04:42:00.339Z,100997.97
2017-11-19T04:44:27.938Z,101002.75
2017-11-19T04:46:55.569Z,101011.60
2017-11-19T04:49:23.174Z,101010.80
2017-11-19T04:51:50.799Z,101012.77
2017-11-19T04:54:18.453Z,101012.55
2017-11-19T04:56:46.079Z,101011.44
2017-11-19T04:59:13.670Z,101021.02
2017-11-19T05:01:41.299Z,101021.24
2017-11-19T05:04:08.892Z,101018.36
2017-11-19T05:06:36.523Z,101021.24
2017-11-19T05:09:04.120Z,101024.44
2017-11-19T05:11:31.743Z,101012.92
2017-11-19T05:13:59.355Z,101011.64
2017-11-19T05:16:27.040Z,101014.41
2017-11-19T05:18:54.643Z,101013.23
2017-11-19T05:21:22.301Z,101014.98
2017-11-19T05:23:49.909Z,101010.42
2017-11-19T05:26:17.548Z,101011.48
2017-11-19T05:28:45.131Z,101011.63
2017-11-19T05:31:12.762Z,101019.15
2017-11-19T05:33:40.335Z,101018.95
2017-11-19T05:36:07.962Z,101028.22
2017-11-19T05:38:35.583Z,101031.92
2017-11-19T05:41:03.217Z,101031.70
2017-11-19T05:43:30.848Z,101031.48
2017-11-19T05:45:58.491Z,101033.22
2017-11-19T05:48:26.099Z,101034.70
2017-11-19T05:50:53.811Z,101032.17
2017-11-19T05:53:21.440Z,101040.86
2017-11-19T05:55:49.062Z,101042.99
2017-11-19T05:58:16.662Z,101044.20
2017-11-19T06:00:44.282Z,101037.08
2017-11-19T06:03:11.885Z,101040.76
2017-11-19T06:05:39.514Z,101039.02
2017-11-19T06:08:07.115Z,101046.61
2017-11-19T06:10:34.744Z,101042.12
2017-11-19T06:13:02.355Z,101046.16
2017-11-19T06:15:29.939Z,101046.27
2017-11-19T06:17:57.628Z,101044.17
2017-11-19T06:20:25.223Z,101048.09
2017-11-19T06:22:52.845Z,101053.86
2017-11-19T06:25:20.508Z,101058.30
2017-11-19T06:27:48.123Z,101060.73
2017-11-19T06:30:15.722Z,101067.98
2017-11-19T06:32:43.362Z,101069.98
2017-11-19T06:35:10.951Z,101073.59
2017-11-19T06:37:38.591Z,101078.61
2017-11-19T06:40:06.206Z,101076.94
2017-11-19T06:42:33.832Z,101083.66
2017-11-19T06:45:01.440Z,101084.30
2017-11-19T06:47:29.083Z,101083.12
2017-11-19T06:49:56.682Z,101081.04
2017-11-19T06:52:24.318Z,101086.84
2017-11-19T06:54:51.910Z,101090.00
2017-11-19T06:57:19.534Z,101091.37
2017-11-19T06:59:47.184Z,101104.28
2017-11-19T07:02:14.812Z,101094.14
2017-11-19T07:04:42.414Z,101106.94
2017-11-19T07:07:10.047Z,101102.12
2017-11-19T07:09:37.640Z,101092.06
2017-11-19T07:12:05.270Z,101105.58
2017-11-19T07:14:32.971Z,101105.46
2017-11-19T07:17:00.609Z,101108.34
2017-11-19T07:19:28.254Z,101112.91
2017-11-19T07:21:55.894Z,101111.55
2017-11-19T07:24:23.496Z,101114.09
2017-11-19T07:26:51.131Z,101111.28
2017-11-19T07:29:18.743Z,101112.50
2017-11-19T07:31:46.365Z,101118.01
2017-11-19T07:34:14.091Z,101125.88
2017-11-19T07:36:41.758Z,101130.20
2017-11-19T07:39:09.359Z,101128.45
2017-11-19T07:41:36.996Z,101131.64
2017-11-19T07:44:04.738Z,101132.73
2017-11-19T07:46:32.407Z,101132.13
2017-11-19T07:49:00.005Z,101133.84
2017-11-19T07:51:27.620Z,101141.02
2017-11-19T07:53:55.221Z,101144.78
2017-11-19T07:56:22.846Z,101147.51
2017-11-19T07:58:50.441Z,101147.73
2017-11-19T08:01:18.070Z,101141.70
2017-11-19T08:03:45.664Z,101148.53
2017-11-19T08:06:13.312Z,101142.41
2017-11-19T08:08:40.911Z,101141.47
2017-11-19T08:11:08.622Z,101147.48
2017-11-19T08:13:36.237Z,101147.63
2017-11-19T08:16:03.866Z,101158.16
2017-11-19T08:18:31.506Z,101160.84
2017-11-19T08:20:59.156Z,101158.64
2017-11-19T08:23:26.767Z,101158.03
2017-11-19T08:25:54.436Z,101164.45
2017-11-19T08:28:22.074Z,101160.66
2017-11-19T08:30:49.763Z,101153.70
2017-11-19T08:33:17.383Z,101155.45
2017-11-19T08:35:45.034Z,101160.13
2017-11-19T08:38:12.642Z,101164.03
2017-11-19T08:40:40.287Z,101162.56
2017-11-19T08:43:07.986Z,101167.39
2017-11-19T08:45:35.638Z,101167.59
2017-11-19T08:48:03.268Z,101179.14
2017-11-19T08:50:30.870Z,101177.36
2017-11-19T08:52:58.508Z,101177.33
2017-11-19T08:55:26.162Z,101165.17
2017-11-19T08:57:53.765Z,101167.11
2017-11-19T09:00:21.401Z,101171.94
2017-11-19T09:02:49.043Z,101181.02
2017-11-19T09:05:16.718Z,101180.61
2017-11-19T09:07:44.316Z,101181.25
2017-11-19T09:10:11.944Z,101187.48
2017-11-19T09:12:39.596Z,101178.93
2017-11-19T09:15:07.242Z,101183.22
2017-11-19T09:17:34.835Z,101178.17
2017-11-19T09:20:02.463Z,101183.91
2017-11-19T09:22:30.084Z,101187.69
2017-11-19T09:24:57.766Z,101186.37
2017-11-19T09:27:25.415Z,101195.37
2017-11-19T09:29:53.078Z,101194.84
2017-11-19T09:32:20.693Z,101190.67
2017-11-19T09:34:48.330Z,101192.53
2017-11-19T09:37:15.933Z,101194.42
2017-11-19T09:39:43.579Z,101201.34
2017-11-19T09:42:11.271Z,101204.41
2017-11-19T09:44:38.923Z,101204.88
2017-11-19T09:47:06.531Z,101206.41
2017-11-19T09:49:34.150Z,101209.66
2017-11-19T09:52:01.784Z,101215.98
2017-11-19T09:54:29.398Z,101211.16
2017-11-19T09:56:57.055Z,101209.58
2017-11-19T09:59:24.675Z,101210.02
2017-11-19T10:01:52.317Z,101217.05
2017-11-19T10:04:19.927Z,101216.36
2017-11-19T10:06:47.556Z,101218.28
2017-11-19T10:09:15.232Z,101212.42
2017-11-19T10:11:42.877Z,101219.89
2017-11-19T10:14:10.504Z,101216.98
2017-11-19T10:16:38.149Z,101226.85
2017-11-19T10:19:05.802Z,101227.48
2017-11-19T10:21:33.464Z,101226.73
2017-11-19T10:24:01.067Z,101220.62
2017-11-19T10:26:28.736Z,101217.56
2017-11-19T10:28:56.373Z,101222.68
2017-11-19T10:31:24.023Z,101220.55
2017-11-19T10:33:51.660Z,101217.12
2017-11-19T10:36:19.330Z,101214.98
2017-11-19T10:38:46.952Z,101218.67
2017-11-19T10:41:14.621Z,101220.09
2017-11-19T10:43:42.280Z,101222.80
2017-11-19T10:46:09.981Z,101226.52
2017-11-19T10:48:37.619Z,101225.53
2017-11-19T10:51:05.287Z,101231.04
2017-11-19T10:53:32.914Z,101225.01
2017-11-19T10:56:00.592Z,101227.41
2017-11-19T10:58:28.239Z,101229.09
2017-11-19T11:00:55.900Z,101222.83
2017-11-19T11:03:23.526Z,101219.05
2017-11-19T11:05:51.164Z,101223.44
2017-11-19T11:08:18.766Z,101224.55
2017-11-19T11:10:46.408Z,101225.06
2017-11-19T11:13:14.039Z,101223.56
2017-11-19T11:15:41.701Z,101224.17
2017-11-19T11:18:09.310Z,101220.11
2017-11-19T11:20:36.963Z,101227.63
2017-11-19T11:23:04.583Z,101226.56
2017-11-19T11:25:32.239Z,101225.53
2017-11-19T11:27:59.859Z,101219.87
2017-11-19T11:30:27.640Z,101231.80
2017-11-19T11:32:55.277Z,101224.55
2017-11-19T11:35:22.923Z,101229.34
2017-11-19T11:37:50.570Z,101240.45
2017-11-19T11:40:18.233Z,101228.84
2017-11-19T11:42:45.874Z,101226.05
2017-11-19T11:45:13.579Z,101231.61
2017-11-19T11:47:41.225Z,101229.74
2017-11-19T11:50:08.939Z,101226.69
2017-11-19T11:52:36.547Z,101226.42
2017-11-19T11:55:04.178Z,101225.35
2017-11-19T11:57:31.787Z,101225.18
2017-11-19T11:59:59.438Z,101216.19
2017-11-19T12:02:27.054Z,101216.17
2017-11-19T12:04:54.700Z,101220.09
2017-11-19T12:07:22.308Z,101216.38
2017-11-19T12:09:49.963Z,101217.61
2017-11-19T12:12:17.604Z,101220.63
2017-11-19T12:14:45.241Z,101221.86
2017-11-19T12:17:12.850Z,101219.06
2017-11-19T12:19:40.474Z,101217.78
2017-11-19T12:22:08.159Z,101218.14
2017-11-19T12:24:35.799Z,101218.80
2017-11-19T12:27:03.411Z,101221.39
2017-11-19T12:29:31.055Z,101211.80
2017-11-19T12:31:58.668Z,101215.34
2017-11-19T12:34:26.344Z,101223.36
2017-11-19T12:36:53.982Z,101219.78
2017-11-19T12:39:21.595Z,101223.70
2017-11-19T12:41:49.209Z,101224.55
2017-11-19T12:44:16.863Z,101223.34
2017-11-19T12:46:44.475Z,101238.95
2017-11-19T12:49:12.216Z,101226.87
2017-11-19T12:51:39.818Z,101235.78
2017-11-19T12:54:07.495Z,101225.78
2017-11-19T12:56:35.083Z,101230.45
2017-11-19T12:59:02.774Z,101227.77
2017-11-19T13:01:30.379Z,101231.59
2017-11-19T13:03:58.034Z,101230.80
2017-11-19T13:06:25.638Z,101233.60
2017-11-19T13:08:53.268Z,101233.16
2017-11-19T13:11:20.871Z,101240.58
2017-11-19T13:13:48.495Z,101247.09
2017-11-19T13:16:16.126Z,101246.84
2017-11-19T13:18:43.759Z,101258.48
2017-11-19T13:21:11.500Z,101248.84
2017-11-19T13:23:39.133Z,101247.06
2017-11-19T13:26:06.799Z,101247.69
2017-11-19T13:28:34.403Z,101250.23
2017-11-19T13:31:02.050Z,101238.22
2017-11-19T13:33:29.650Z,101231.30
2017-11-19T13:35:57.330Z,101229.33
2017-11-19T13:38:24.974Z,101220.53
2017-11-19T13:40:52.645Z,101213.16
2017-11-19T13:43:20.252Z,101224.65
2017-11-19T13:45:47.903Z,101218.97
2017-11-19T13:48:15.576Z,101220.03
2017-11-19T13:50:43.262Z,101218.68
2017-11-19T13:53:10.897Z,101222.69
2017-11-19T13:55:38.539Z,101230.03
2017-11-19T13:58:06.172Z,101224.84
2017-11-19T14:00:33.833Z,101222.81
2017-11-19T14:03:01.445Z,101232.66
2017-11-19T14:05:29.179Z,101235.62
2017-11-19T14:07:56.874Z,101231.39
2017-11-19T14:10:24.502Z,101248.81
2017-11-19T14:12:52.109Z,101245.39
2017-11-19T14:15:19.748Z,101259.11
2017-11-19T14:17:47.362Z,101265.34
2017-11-19T14:20:15.068Z,101259.63
2017-11-19T14:22:42.703Z,101261.89
2017-11-19T14:25:10.447Z,101267.72
2017-11-19T14:27:38.067Z,101262.44
2017-11-19T14:30:05.839Z,101264.02
2017-11-19T14:32:33.443Z,101266.03
2017-11-19T14:35:01.082Z,101265.59
2017-11-19T14:37:28.767Z,101274.57
2017-11-19T14:39:56.401Z,101270.22
2017-11-19T14:42:24.003Z,101271.53
2017-11-19T14:44:51.637Z,101272.98
2017-11-19T14:47:19.273Z,101283.66
2017-11-19T14:49:46.938Z,101273.42
2017-11-19T14:52:14.556Z,101284.99
2017-11-19T14:54:42.171Z,101287.72
2017-11-19T14:57:09.800Z,101286.77
2017-11-19T14:59:37.435Z,101285.55
2017-11-19T15:02:05.065Z,101293.53
2017-11-19T15:04:32.698Z,101286.95
2017-11-19T15:07:00.382Z,101292.76
2017-11-19T15:09:28.035Z,101299.48
2017-11-19T15:11:55.667Z,101305.29
2017-11-19T15:14:23.307Z,101295.38
2017-11-19T15:16:50.975Z,101305.39
2017-11-19T15:19:18.609Z,101310.27
2017-11-19T15:21:46.223Z,101305.91
2017-11-19T15:24:13.890Z,101314.25
2017-11-19T15:26:41.552Z,101302.00
2017-11-19T15:29:09.191Z,101299.42
2017-11-19T15:31:36.809Z,101304.27
2017-11-19T15:34:04.427Z,101316.42
2017-11-19T15:36:32.039Z,101313.23
2017-11-19T15:38:59.686Z,101312.31
2017-11-19T15:41:27.281Z,101327.23
2017-11-19T15:43:54.944Z,101320.11
2017-11-19T15:46:22.581Z,101327.16
2017-11-19T15:48:50.253Z,101325.97
2017-11-19T15:51:17.866Z,101304.89
2017-11-19T15:53:45.519Z,101309.41
2017-11-19T15:56:13.116Z,101314.63
2017-11-19T15:58:40.786Z,101316.88
2017-11-19T16:01:08.506Z,101316.52
2017-11-19T16:03:36.215Z,101326.09
2017-11-19T16:06:05.360Z,101335.47
2017-11-19T16:08:33.034Z,101334.67
2017-11-19T16:11:00.645Z,101338.44
2017-11-19T16:13:28.308Z,101336.98
2017-11-19T16:15:55.937Z,101345.67
2017-11-19T16:18:23.591Z,101337.47
2017-11-19T16:20:51.211Z,101341.47
2017-11-19T16:23:18.876Z,101345.63
2017-11-19T16:25:46.689Z,101352.16
2017-11-19T16:28:14.320Z,101351.16
2017-11-19T16:30:41.927Z,101352.61
2017-11-19T16:33:09.686Z,101355.31
2017-11-19T16:35:37.316Z,101354.59
2017-11-19T16:38:04.947Z,101363.81
2017-11-19T16:40:32.534Z,101355.52
2017-11-19T16:43:00.200Z,101365.30
2017-11-19T16:45:27.805Z,101360.84
2017-11-19T16:47:55.451Z,101367.50
2017-11-19T16:50:23.057Z,101367.31
2017-11-19T16:52:50.745Z,101365.64
2017-11-19T16:55:18.369Z,101369.18
2017-11-19T16:57:45.996Z,101374.39
2017-11-19T17:00:13.660Z,101369.71
2017-11-19T17:02:41.295Z,101369.80
2017-11-19T17:05:08.960Z,101372.57
2017-11-19T17:07:36.582Z,101373.59
2017-11-19T17:10:04.218Z,101383.16
2017-11-19T17:12:31.869Z,101388.44
2017-11-19T17:14:59.492Z,101386.77
2017-11-19T17:17:27.136Z,101391.52
2017-11-19T17:19:54.810Z,101397.27
2017-11-19T17:22:22.406Z,101402.17
2017-11-19T17:24:50.056Z,101402.75
2017-11-19T17:27:17.678Z,101401.84
2017-11-19T17:29:45.327Z,101401.15
2017-11-19T17:32:12.934Z,101401.34
2017-11-19T17:34:40.612Z,101400.35
2017-11-19T17:37:08.251Z,101401.41
2017-11-19T17:39:35.911Z,101404.23
2017-11-19T17:42:03.512Z,101414.28
2017-11-19T17:44:31.168Z,101418.28
2017-11-19T17:46:58.764Z,101422.20
2017-11-19T17:49:26.430Z,101427.33
2017-11-19T17:51:54.064Z,101422.50
2017-11-19T17:54:21.727Z,101427.11
2017-11-19T17:56:49.373Z,101431.14
2017-11-19T17:59:17.043Z,101431.33
2017-11-19T18:01:44.664Z,101432.58
2017-11-19T18:04:12.338Z,101423.98
2017-11-19T18:06:39.938Z,101430.33
2017-11-19T18:09:07.614Z,101463.89
2017-11-19T18:11:35.287Z,101464.45
2017-11-19T18:14:02.936Z,101460.81
2017-11-19T18:16:30.567Z,101459.63
2017-11-19T18:18:58.262Z,101446.87
2017-11-19T18:21:25.870Z,101449.62
2017-11-19T18:23:53.507Z,101449.87
2017-11-19T18:26:21.112Z,101442.88
2017-11-19T18:28:48.763Z,101444.02
2017-11-19T18:31:16.375Z,101451.17
2017-11-19T18:33:44.043Z,101453.16
2017-11-19T18:36:11.671Z,101456.77
2017-11-19T18:38:39.300Z,101454.30
2017-11-19T18:41:06.911Z,101455.83
2017-11-19T18:43:34.669Z,101461.98
2017-11-19T18:46:02.290Z,101459.55
2017-11-19T18:48:29.951Z,101463.92
2017-11-19T18:50:57.594Z,101465.12
2017-11-19T18:53:25.237Z,101468.14
2017-11-19T18:55:52.833Z,101468.70
2017-11-19T18:58:20.480Z,101462.10
2017-11-19T19:00:48.092Z,101463.95
2017-11-19T19:03:15.794Z,101465.68
2017-11-19T19:05:43.473Z,101466.09
2017-11-19T19:08:11.143Z,101469.39
2017-11-19T19:10:38.754Z,101478.44
2017-11-19T19:13:06.401Z,101471.47
2017-11-19T19:15:34.043Z,101476.73
2017-11-19T19:18:01.695Z,101480.06
2017-11-19T19:20:29.331Z,101483.86
2017-11-19T19:22:56.991Z,101477.81
2017-11-19T19:25:24.574Z,101485.91
2017-11-19T19:27:52.186Z,101493.78
2017-11-19T19:30:19.830Z,101490.32
2017-11-19T19:32:47.434Z,101491.03
2017-11-19T19:35:15.178Z,101491.67
2017-11-19T19:37:42.791Z,101492.20
2017-11-19T19:40:10.447Z,101499.23
2017-11-19T19:42:38.058Z,101501.30
2017-11-19T19:45:05.724Z,101500.55
2017-11-19T19:47:33.344Z,101506.09
2017-11-19T19:50:00.978Z,101510.56
2017-11-19T19:52:28.583Z,101506.87
2017-11-19T19:54:56.237Z,101511.92
2017-11-19T19:57:23.878Z,101505.67
2017-11-19T19:59:51.533Z,101514.71
2017-11-19T20:02:19.458Z,101514.60
2017-11-19T20:04:47.130Z,101522.08
2017-11-19T20:07:14.750Z,101523.41
2017-11-19T20:09:42.958Z,101524.52
2017-11-19T20:12:10.565Z,101526.67
2017-11-19T20:14:38.217Z,101545.30
2017-11-19T20:17:05.843Z,101534.02
2017-11-19T20:19:33.478Z,101539.01
2017-11-19T20:22:01.099Z,101545.97
2017-11-19T20:24:28.727Z,101545.86
2017-11-19T20:26:56.354Z,101550.48
2017-11-19T20:29:24.021Z,101555.50
2017-11-19T20:31:51.624Z,101557.14
2017-11-19T20:34:19.265Z,101560.94
2017-11-19T20:36:46.905Z,101559.19
2017-11-19T20:39:14.684Z,101560.19
2017-11-19T20:41:42.328Z,101563.69
2017-11-19T20:44:09.992Z,101564.38
2017-11-19T20:46:37.614Z,101573.68
2017-11-19T20:49:05.248Z,101573.57
2017-11-19T20:51:32.882Z,101568.34
2017-11-19T20:54:00.582Z,101568.64
2017-11-19T20:56:28.196Z,101586.28
2017-11-19T20:58:55.840Z,101575.32
2017-11-19T21:01:23.441Z,101587.28
2017-11-19T21:03:51.082Z,101581.64
2017-11-19T21:06:18.695Z,101581.34
2017-11-19T21:08:46.479Z,101586.41
2017-11-19T21:11:14.092Z,101584.45
2017-11-19T21:13:41.739Z,101585.38
2017-11-19T21:16:09.366Z,101586.48
2017-11-19T21:18:37.163Z,101591.40
2017-11-19T21:21:04.790Z,101590.98
2017-11-19T21:23:32.506Z,101596.31
2017-11-19T21:26:00.129Z,101601.11
2017-11-19T21:28:27.765Z,101595.52
2017-11-19T21:30:55.362Z,101607.78
2017-11-19T21:33:22.975Z,101608.83
2017-11-19T21:35:50.584Z,101618.66
2017-11-19T21:38:18.255Z,101612.44
2017-11-19T21:40:45.883Z,101612.22
2017-11-19T21:43:13.550Z,101616.45
2017-11-19T21:45:41.151Z,101620.86
2017-11-19T21:48:08.857Z,101618.20
2017-11-19T21:50:36.478Z,101620.53
2017-11-19T21:53:04.123Z,101622.55
2017-11-19T21:55:31.735Z,101618.97
2017-11-19T21:57:59.383Z,101620.10
2017-11-19T22:00:27.007Z,101611.00
2017-11-19T22:02:54.651Z,101612.11
2017-11-19T22:05:22.277Z,101603.00
2017-11-19T22:07:50.062Z,101599.56
2017-11-19T22:10:17.722Z,101603.05
2017-11-19T22:12:45.378Z,101606.95
2017-11-19T22:15:12.990Z,101608.65
2017-11-19T22:17:40.799Z,101604.45
2017-11-19T22:20:08.416Z,101605.27
2017-11-19T22:22:36.122Z,101611.22
2017-11-19T22:25:03.725Z,101609.69
2017-11-19T22:27:31.517Z,101608.14
2017-11-19T22:29:59.145Z,101616.85
2017-11-19T22:32:26.803Z,101603.34
2017-11-19T22:34:54.406Z,101611.42
2017-11-19T22:37:22.055Z,101606.44
2017-11-19T22:39:49.663Z,101608.25
2017-11-19T22:42:17.287Z,101606.44
2017-11-19T22:44:44.883Z,101613.42
2017-11-19T22:47:12.529Z,101608.11
2017-11-19T22:49:40.137Z,101602.91
2017-11-19T22:52:07.775Z,101606.98
2017-11-19T22:54:35.392Z,101606.30
2017-11-19T22:57:03.260Z,101604.17
2017-11-19T22:59:30.926Z,101606.31
2017-11-19T23:01:58.539Z,101607.45
2017-11-19T23:04:26.243Z,101608.56
2017-11-19T23:06:54.073Z,101616.25
2017-11-19T23:09:21.735Z,101611.05
2017-11-19T23:11:49.401Z,101618.61
2017-11-19T23:14:17.045Z,101616.65
2017-11-19T23:16:44.714Z,101619.41
2017-11-19T23:19:12.354Z,101611.96
2017-11-19T23:21:39.941Z,101617.84
2017-11-19T23:24:07.606Z,101620.40
2017-11-19T23:26:35.203Z,101622.23
2017-11-19T23:29:02.842Z,101617.77
2017-11-19T23:31:30.482Z,101610.92
2017-11-19T23:33:58.117Z,101620.97
2017-11-19T23:36:25.770Z,101618.92
2017-11-19T23:38:53.427Z,101613.20
2017-11-19T23:41:21.024Z,101609.25
2017-11-19T23:43:48.706Z,101603.20
2017-11-19T23:46:16.334Z,101607.72
2017-11-19T23:48:44.074Z,101597.69
2017-11-19T23:51:11.666Z,101595.67
2017-11-19T23:53:39.340Z,101599.56
2017-11-19T23:56:06.938Z,101597.32
2017-11-19T23:58:34.568Z,101598.33
